sensor_id;sensor_type;location;lat;lon;timestamp;temperature;humidity
18043;DHT22;9146;48.074;11.968;2023-04-25T00:00:02;4.90;99.90
18043;DHT22;9146;48.074;11.968;2023-04-25T00:02:32;4.90;99.90
18043;DHT22;9146;48.074;11.968;2023-04-25T00:05:00;4.90;99.90
18043;DHT22;9146;48.074;11.968;2023-04-25T00:07:27;4.90;99.90
18043;DHT22;9146;48.074;11.968;2023-04-25T00:09:54;4.90;99.90
18043;DHT22;9146;48.074;11.968;2023-04-25T00:12:22;5.00;99.90
18043;DHT22;9146;48.074;11.968;2023-04-25T00:14:49;5.00;99.90
18043;DHT22;9146;48.074;11.968;2023-04-25T00:17:16;5.00;99.90
18043;DHT22;9146;48.074;11.968;2023-04-25T00:19:44;5.00;99.90
18043;DHT22;9146;48.074;11.968;2023-04-25T00:22:11;5.10;99.90
18043;DHT22;9146;48.074;11.968;2023-04-25T00:24:38;5.10;99.90
18043;DHT22;9146;48.074;11.968;2023-04-25T00:27:05;5.20;99.90
18043;DHT22;9146;48.074;11.968;2023-04-25T00:29:33;5.20;99.90
18043;DHT22;9146;48.074;11.968;2023-04-25T00:32:01;5.20;99.90
18043;DHT22;9146;48.074;11.968;2023-04-25T00:34:28;5.30;99.90
18043;DHT22;9146;48.074;11.968;2023-04-25T00:36:55;5.30;99.90
18043;DHT22;9146;48.074;11.968;2023-04-25T00:39:23;5.30;99.90
18043;DHT22;9146;48.074;11.968;2023-04-25T00:41:50;5.40;99.90
18043;DHT22;9146;48.074;11.968;2023-04-25T00:44:20;5.40;99.90
18043;DHT22;9146;48.074;11.968;2023-04-25T00:46:48;5.40;99.90
18043;DHT22;9146;48.074;11.968;2023-04-25T00:49:15;5.40;99.90
18043;DHT22;9146;48.074;11.968;2023-04-25T00:51:43;5.40;99.90
18043;DHT22;9146;48.074;11.968;2023-04-25T00:54:11;5.50;99.90
18043;DHT22;9146;48.074;11.968;2023-04-25T00:56:38;5.50;99.90
18043;DHT22;9146;48.074;11.968;2023-04-25T00:59:05;5.50;99.90
18043;DHT22;9146;48.074;11.968;2023-04-25T01:01:33;5.50;99.90
18043;DHT22;9146;48.074;11.968;2023-04-25T01:04:02;5.60;99.90
18043;DHT22;9146;48.074;11.968;2023-04-25T01:06:29;5.60;99.90
18043;DHT22;9146;48.074;11.968;2023-04-25T01:08:56;5.70;99.90
18043;DHT22;9146;48.074;11.968;2023-04-25T01:11:24;5.80;99.90
18043;DHT22;9146;48.074;11.968;2023-04-25T01:13:51;5.80;99.90
18043;DHT22;9146;48.074;11.968;2023-04-25T01:16:18;5.90;99.90
18043;DHT22;9146;48.074;11.968;2023-04-25T01:18:45;5.90;99.90
18043;DHT22;9146;48.074;11.968;2023-04-25T01:21:14;6.00;99.90
18043;DHT22;9146;48.074;11.968;2023-04-25T01:23:41;6.00;99.90
18043;DHT22;9146;48.074;11.968;2023-04-25T01:26:10;6.10;99.90
18043;DHT22;9146;48.074;11.968;2023-04-25T01:28:37;6.10;99.90
18043;DHT22;9146;48.074;11.968;2023-04-25T01:31:06;6.20;99.90
18043;DHT22;9146;48.074;11.968;2023-04-25T01:33:33;6.20;99.90
18043;DHT22;9146;48.074;11.968;2023-04-25T01:36:00;6.30;99.90
18043;DHT22;9146;48.074;11.968;2023-04-25T01:38:28;6.30;99.90
18043;DHT22;9146;48.074;11.968;2023-04-25T01:40:56;6.40;99.90
18043;DHT22;9146;48.074;11.968;2023-04-25T01:43:23;6.40;99.90
18043;DHT22;9146;48.074;11.968;2023-04-25T01:45:50;6.50;99.90
18043;DHT22;9146;48.074;11.968;2023-04-25T01:48:17;6.50;99.90
18043;DHT22;9146;48.074;11.968;2023-04-25T01:50:44;6.50;99.90
18043;DHT22;9146;48.074;11.968;2023-04-25T01:53:13;6.50;99.90
18043;DHT22;9146;48.074;11.968;2023-04-25T01:55:42;6.50;99.90
18043;DHT22;9146;48.074;11.968;2023-04-25T01:58:09;6.50;99.90
18043;DHT22;9146;48.074;11.968;2023-04-25T02:00:38;6.50;99.90
18043;DHT22;9146;48.074;11.968;2023-04-25T02:03:06;6.50;99.90
18043;DHT22;9146;48.074;11.968;2023-04-25T02:05:37;6.50;99.90
18043;DHT22;9146;48.074;11.968;2023-04-25T02:08:05;6.50;99.90
18043;DHT22;9146;48.074;11.968;2023-04-25T02:10:32;6.40;99.90
18043;DHT22;9146;48.074;11.968;2023-04-25T02:13:01;6.30;99.90
18043;DHT22;9146;48.074;11.968;2023-04-25T02:15:30;6.30;99.90
18043;DHT22;9146;48.074;11.968;2023-04-25T02:17:57;6.20;99.90
18043;DHT22;9146;48.074;11.968;2023-04-25T02:20:27;6.20;99.90
18043;DHT22;9146;48.074;11.968;2023-04-25T02:22:54;6.20;99.90
18043;DHT22;9146;48.074;11.968;2023-04-25T02:25:21;6.30;99.90
18043;DHT22;9146;48.074;11.968;2023-04-25T02:27:48;6.30;99.90
18043;DHT22;9146;48.074;11.968;2023-04-25T02:30:18;6.40;99.90
18043;DHT22;9146;48.074;11.968;2023-04-25T02:32:45;6.40;99.90
18043;DHT22;9146;48.074;11.968;2023-04-25T02:35:12;6.30;99.90
18043;DHT22;9146;48.074;11.968;2023-04-25T02:37:39;6.30;99.90
18043;DHT22;9146;48.074;11.968;2023-04-25T02:40:07;6.30;99.90
18043;DHT22;9146;48.074;11.968;2023-04-25T02:42:35;6.20;99.90
18043;DHT22;9146;48.074;11.968;2023-04-25T02:45:02;6.20;99.90
18043;DHT22;9146;48.074;11.968;2023-04-25T02:47:30;6.10;99.90
18043;DHT22;9146;48.074;11.968;2023-04-25T02:49:57;6.10;99.90
18043;DHT22;9146;48.074;11.968;2023-04-25T02:52:24;6.00;99.90
18043;DHT22;9146;48.074;11.968;2023-04-25T02:54:51;6.00;99.90
18043;DHT22;9146;48.074;11.968;2023-04-25T02:57:18;5.90;99.90
18043;DHT22;9146;48.074;11.968;2023-04-25T02:59:45;5.90;99.90
18043;DHT22;9146;48.074;11.968;2023-04-25T03:02:12;5.90;99.90
18043;DHT22;9146;48.074;11.968;2023-04-25T03:04:42;5.90;99.90
18043;DHT22;9146;48.074;11.968;2023-04-25T03:07:09;5.90;99.90
18043;DHT22;9146;48.074;11.968;2023-04-25T03:09:37;5.90;99.90
18043;DHT22;9146;48.074;11.968;2023-04-25T03:12:04;5.90;99.90
18043;DHT22;9146;48.074;11.968;2023-04-25T03:14:31;5.90;99.90
18043;DHT22;9146;48.074;11.968;2023-04-25T03:16:58;5.90;99.90
18043;DHT22;9146;48.074;11.968;2023-04-25T03:19:24;5.90;99.90
18043;DHT22;9146;48.074;11.968;2023-04-25T03:21:53;5.90;99.90
18043;DHT22;9146;48.074;11.968;2023-04-25T03:24:21;6.00;99.90
18043;DHT22;9146;48.074;11.968;2023-04-25T03:26:49;6.00;99.90
18043;DHT22;9146;48.074;11.968;2023-04-25T03:29:16;6.10;99.90
18043;DHT22;9146;48.074;11.968;2023-04-25T03:31:43;6.20;99.90
18043;DHT22;9146;48.074;11.968;2023-04-25T03:34:11;6.20;99.90
18043;DHT22;9146;48.074;11.968;2023-04-25T03:36:39;6.30;99.90
18043;DHT22;9146;48.074;11.968;2023-04-25T03:39:08;6.30;99.90
18043;DHT22;9146;48.074;11.968;2023-04-25T03:41:36;6.40;99.90
18043;DHT22;9146;48.074;11.968;2023-04-25T03:44:03;6.40;99.90
18043;DHT22;9146;48.074;11.968;2023-04-25T03:46:30;6.50;99.90
18043;DHT22;9146;48.074;11.968;2023-04-25T03:48:57;6.50;99.90
18043;DHT22;9146;48.074;11.968;2023-04-25T03:51:24;6.60;99.90
18043;DHT22;9146;48.074;11.968;2023-04-25T03:53:52;6.60;99.90
18043;DHT22;9146;48.074;11.968;2023-04-25T03:56:20;6.50;99.90
18043;DHT22;9146;48.074;11.968;2023-04-25T03:58:47;6.50;99.90
18043;DHT22;9146;48.074;11.968;2023-04-25T04:01:14;6.40;99.90
18043;DHT22;9146;48.074;11.968;2023-04-25T04:03:41;6.20;99.90
18043;DHT22;9146;48.074;11.968;2023-04-25T04:06:08;6.00;99.90
18043;DHT22;9146;48.074;11.968;2023-04-25T04:08:36;5.90;99.90
18043;DHT22;9146;48.074;11.968;2023-04-25T04:11:03;5.70;99.90
18043;DHT22;9146;48.074;11.968;2023-04-25T04:13:31;5.50;99.90
18043;DHT22;9146;48.074;11.968;2023-04-25T04:15:58;5.40;99.90
18043;DHT22;9146;48.074;11.968;2023-04-25T04:18:25;5.30;99.90
18043;DHT22;9146;48.074;11.968;2023-04-25T04:20:52;5.20;99.90
18043;DHT22;9146;48.074;11.968;2023-04-25T04:23:19;5.10;99.90
18043;DHT22;9146;48.074;11.968;2023-04-25T04:25:48;5.00;99.90
18043;DHT22;9146;48.074;11.968;2023-04-25T04:28:15;4.90;99.90
18043;DHT22;9146;48.074;11.968;2023-04-25T04:30:44;4.90;99.90
18043;DHT22;9146;48.074;11.968;2023-04-25T04:33:12;4.90;99.90
18043;DHT22;9146;48.074;11.968;2023-04-25T04:35:41;4.80;99.90
18043;DHT22;9146;48.074;11.968;2023-04-25T04:38:08;4.90;99.90
18043;DHT22;9146;48.074;11.968;2023-04-25T04:40:36;4.90;99.90
18043;DHT22;9146;48.074;11.968;2023-04-25T04:43:03;4.90;99.90
18043;DHT22;9146;48.074;11.968;2023-04-25T04:45:30;4.90;99.90
18043;DHT22;9146;48.074;11.968;2023-04-25T04:47:58;5.00;99.90
18043;DHT22;9146;48.074;11.968;2023-04-25T04:50:25;5.10;99.90
18043;DHT22;9146;48.074;11.968;2023-04-25T04:52:53;5.20;99.90
18043;DHT22;9146;48.074;11.968;2023-04-25T04:55:20;5.30;99.90
18043;DHT22;9146;48.074;11.968;2023-04-25T04:57:47;5.30;99.90
18043;DHT22;9146;48.074;11.968;2023-04-25T05:00:15;5.40;99.90
18043;DHT22;9146;48.074;11.968;2023-04-25T05:02:42;5.40;99.90
18043;DHT22;9146;48.074;11.968;2023-04-25T05:05:10;5.50;99.90
18043;DHT22;9146;48.074;11.968;2023-04-25T05:07:37;5.60;99.90
18043;DHT22;9146;48.074;11.968;2023-04-25T05:10:05;5.70;99.90
18043;DHT22;9146;48.074;11.968;2023-04-25T05:12:32;5.80;99.90
18043;DHT22;9146;48.074;11.968;2023-04-25T05:14:59;5.80;99.90
18043;DHT22;9146;48.074;11.968;2023-04-25T05:17:26;5.80;99.90
18043;DHT22;9146;48.074;11.968;2023-04-25T05:19:53;5.80;99.90
18043;DHT22;9146;48.074;11.968;2023-04-25T05:22:22;5.90;99.90
18043;DHT22;9146;48.074;11.968;2023-04-25T05:24:49;5.90;99.90
18043;DHT22;9146;48.074;11.968;2023-04-25T05:27:17;5.90;99.90
18043;DHT22;9146;48.074;11.968;2023-04-25T05:29:44;5.90;99.90
18043;DHT22;9146;48.074;11.968;2023-04-25T05:32:11;6.00;99.90
18043;DHT22;9146;48.074;11.968;2023-04-25T05:34:38;6.10;99.90
18043;DHT22;9146;48.074;11.968;2023-04-25T05:37:05;6.20;99.90
18043;DHT22;9146;48.074;11.968;2023-04-25T05:39:33;6.20;99.90
18043;DHT22;9146;48.074;11.968;2023-04-25T05:42:00;6.30;99.90
18043;DHT22;9146;48.074;11.968;2023-04-25T05:44:29;6.30;99.90
18043;DHT22;9146;48.074;11.968;2023-04-25T05:46:56;6.40;99.90
18043;DHT22;9146;48.074;11.968;2023-04-25T05:49:23;6.50;99.90
18043;DHT22;9146;48.074;11.968;2023-04-25T05:51:50;6.50;99.90
18043;DHT22;9146;48.074;11.968;2023-04-25T05:54:17;6.60;99.90
18043;DHT22;9146;48.074;11.968;2023-04-25T05:56:45;6.60;99.90
18043;DHT22;9146;48.074;11.968;2023-04-25T05:59:12;6.80;99.90
18043;DHT22;9146;48.074;11.968;2023-04-25T06:01:39;6.80;99.90
18043;DHT22;9146;48.074;11.968;2023-04-25T06:04:08;6.90;99.90
18043;DHT22;9146;48.074;11.968;2023-04-25T06:06:35;6.90;99.90
18043;DHT22;9146;48.074;11.968;2023-04-25T06:09:02;7.00;99.90
18043;DHT22;9146;48.074;11.968;2023-04-25T06:11:29;7.00;99.90
18043;DHT22;9146;48.074;11.968;2023-04-25T06:13:57;7.00;99.90
18043;DHT22;9146;48.074;11.968;2023-04-25T06:16:24;7.10;99.90
18043;DHT22;9146;48.074;11.968;2023-04-25T06:18:51;7.10;99.90
18043;DHT22;9146;48.074;11.968;2023-04-25T06:21:18;7.20;99.90
18043;DHT22;9146;48.074;11.968;2023-04-25T06:23:45;7.20;99.90
18043;DHT22;9146;48.074;11.968;2023-04-25T06:26:12;7.40;99.90
18043;DHT22;9146;48.074;11.968;2023-04-25T06:28:39;7.30;99.90
18043;DHT22;9146;48.074;11.968;2023-04-25T06:31:07;7.50;99.90
18043;DHT22;9146;48.074;11.968;2023-04-25T06:33:34;7.70;99.90
18043;DHT22;9146;48.074;11.968;2023-04-25T06:36:01;8.00;99.90
18043;DHT22;9146;48.074;11.968;2023-04-25T06:38:28;8.10;99.90
18043;DHT22;9146;48.074;11.968;2023-04-25T06:40:55;8.10;99.90
18043;DHT22;9146;48.074;11.968;2023-04-25T06:43:21;8.10;99.90
18043;DHT22;9146;48.074;11.968;2023-04-25T06:45:48;8.20;99.90
18043;DHT22;9146;48.074;11.968;2023-04-25T06:48:17;8.30;99.90
18043;DHT22;9146;48.074;11.968;2023-04-25T06:50:43;8.60;99.90
18043;DHT22;9146;48.074;11.968;2023-04-25T06:53:11;8.80;99.90
18043;DHT22;9146;48.074;11.968;2023-04-25T06:55:38;9.00;99.90
18043;DHT22;9146;48.074;11.968;2023-04-25T06:58:05;8.90;99.90
18043;DHT22;9146;48.074;11.968;2023-04-25T07:00:32;8.60;99.90
18043;DHT22;9146;48.074;11.968;2023-04-25T07:02:59;8.60;99.90
18043;DHT22;9146;48.074;11.968;2023-04-25T07:05:27;8.50;99.90
18043;DHT22;9146;48.074;11.968;2023-04-25T07:07:54;8.40;99.90
18043;DHT22;9146;48.074;11.968;2023-04-25T07:10:22;8.20;99.90
18043;DHT22;9146;48.074;11.968;2023-04-25T07:12:48;7.90;99.90
18043;DHT22;9146;48.074;11.968;2023-04-25T07:15:15;7.80;99.90
18043;DHT22;9146;48.074;11.968;2023-04-25T07:17:42;7.70;99.90
18043;DHT22;9146;48.074;11.968;2023-04-25T07:20:10;7.70;99.90
18043;DHT22;9146;48.074;11.968;2023-04-25T07:22:38;7.70;99.90
18043;DHT22;9146;48.074;11.968;2023-04-25T07:25:07;7.80;99.90
18043;DHT22;9146;48.074;11.968;2023-04-25T07:27:35;7.90;99.90
18043;DHT22;9146;48.074;11.968;2023-04-25T07:30:02;8.00;99.90
18043;DHT22;9146;48.074;11.968;2023-04-25T07:32:29;8.10;99.90
18043;DHT22;9146;48.074;11.968;2023-04-25T07:34:56;8.10;99.90
18043;DHT22;9146;48.074;11.968;2023-04-25T07:37:23;8.20;99.90
18043;DHT22;9146;48.074;11.968;2023-04-25T07:39:52;8.20;99.90
18043;DHT22;9146;48.074;11.968;2023-04-25T07:42:19;8.20;99.90
18043;DHT22;9146;48.074;11.968;2023-04-25T07:44:46;8.40;99.90
18043;DHT22;9146;48.074;11.968;2023-04-25T07:47:13;8.60;99.90
18043;DHT22;9146;48.074;11.968;2023-04-25T07:49:40;8.70;99.90
18043;DHT22;9146;48.074;11.968;2023-04-25T07:52:07;8.80;99.90
18043;DHT22;9146;48.074;11.968;2023-04-25T07:54:34;8.90;99.90
18043;DHT22;9146;48.074;11.968;2023-04-25T07:57:02;9.00;99.90
18043;DHT22;9146;48.074;11.968;2023-04-25T07:59:31;9.10;99.90
18043;DHT22;9146;48.074;11.968;2023-04-25T08:01:59;9.40;99.90
18043;DHT22;9146;48.074;11.968;2023-04-25T08:04:27;9.60;99.90
18043;DHT22;9146;48.074;11.968;2023-04-25T08:06:54;9.70;99.90
18043;DHT22;9146;48.074;11.968;2023-04-25T08:09:21;9.80;99.90
18043;DHT22;9146;48.074;11.968;2023-04-25T08:11:48;10.00;99.90
18043;DHT22;9146;48.074;11.968;2023-04-25T08:14:17;10.10;99.90
18043;DHT22;9146;48.074;11.968;2023-04-25T08:16:44;10.20;99.90
18043;DHT22;9146;48.074;11.968;2023-04-25T08:19:11;10.10;99.90
18043;DHT22;9146;48.074;11.968;2023-04-25T08:21:38;10.00;99.90
18043;DHT22;9146;48.074;11.968;2023-04-25T08:24:05;9.90;99.90
18043;DHT22;9146;48.074;11.968;2023-04-25T08:26:32;9.80;99.90
18043;DHT22;9146;48.074;11.968;2023-04-25T08:29:00;9.70;99.90
18043;DHT22;9146;48.074;11.968;2023-04-25T08:31:28;9.60;99.90
18043;DHT22;9146;48.074;11.968;2023-04-25T08:33:55;9.50;99.90
18043;DHT22;9146;48.074;11.968;2023-04-25T08:36:22;9.50;99.90
18043;DHT22;9146;48.074;11.968;2023-04-25T08:38:49;9.50;99.90
18043;DHT22;9146;48.074;11.968;2023-04-25T08:41:16;9.50;99.90
18043;DHT22;9146;48.074;11.968;2023-04-25T08:43:44;9.60;99.90
18043;DHT22;9146;48.074;11.968;2023-04-25T08:46:15;9.90;99.90
18043;DHT22;9146;48.074;11.968;2023-04-25T08:48:45;10.20;99.90
18043;DHT22;9146;48.074;11.968;2023-04-25T08:51:19;10.40;99.90
18043;DHT22;9146;48.074;11.968;2023-04-25T08:53:51;10.70;99.90
18043;DHT22;9146;48.074;11.968;2023-04-25T08:56:18;11.00;99.90
18043;DHT22;9146;48.074;11.968;2023-04-25T08:58:48;11.40;99.90
18043;DHT22;9146;48.074;11.968;2023-04-25T09:01:16;11.70;99.90
18043;DHT22;9146;48.074;11.968;2023-04-25T09:03:47;11.80;99.90
18043;DHT22;9146;48.074;11.968;2023-04-25T09:06:16;11.90;99.90
18043;DHT22;9146;48.074;11.968;2023-04-25T09:08:44;12.00;99.90
18043;DHT22;9146;48.074;11.968;2023-04-25T09:11:12;12.00;99.90
18043;DHT22;9146;48.074;11.968;2023-04-25T09:13:39;11.70;99.90
18043;DHT22;9146;48.074;11.968;2023-04-25T09:16:06;11.80;99.90
18043;DHT22;9146;48.074;11.968;2023-04-25T09:18:34;11.70;99.90
18043;DHT22;9146;48.074;11.968;2023-04-25T09:21:07;11.70;99.90
18043;DHT22;9146;48.074;11.968;2023-04-25T09:23:39;11.80;99.90
18043;DHT22;9146;48.074;11.968;2023-04-25T09:26:07;11.70;99.90
18043;DHT22;9146;48.074;11.968;2023-04-25T09:28:35;11.80;99.90
18043;DHT22;9146;48.074;11.968;2023-04-25T09:31:03;11.80;99.90
18043;DHT22;9146;48.074;11.968;2023-04-25T09:33:31;12.00;99.90
18043;DHT22;9146;48.074;11.968;2023-04-25T09:36:03;12.20;99.90
18043;DHT22;9146;48.074;11.968;2023-04-25T09:38:32;12.50;99.90
18043;DHT22;9146;48.074;11.968;2023-04-25T09:40:59;12.40;99.90
18043;DHT22;9146;48.074;11.968;2023-04-25T09:43:27;12.30;99.90
18043;DHT22;9146;48.074;11.968;2023-04-25T09:45:55;12.20;99.90
18043;DHT22;9146;48.074;11.968;2023-04-25T09:48:26;12.10;99.90
18043;DHT22;9146;48.074;11.968;2023-04-25T09:51:07;11.90;99.90
18043;DHT22;9146;48.074;11.968;2023-04-25T09:53:36;11.80;99.90
18043;DHT22;9146;48.074;11.968;2023-04-25T09:56:06;11.70;99.90
18043;DHT22;9146;48.074;11.968;2023-04-25T09:58:34;11.70;99.90
18043;DHT22;9146;48.074;11.968;2023-04-25T10:01:04;11.70;99.90
18043;DHT22;9146;48.074;11.968;2023-04-25T10:03:32;11.60;99.90
18043;DHT22;9146;48.074;11.968;2023-04-25T10:06:00;11.60;99.90
18043;DHT22;9146;48.074;11.968;2023-04-25T10:08:31;11.70;99.90
18043;DHT22;9146;48.074;11.968;2023-04-25T10:11:02;11.80;99.90
18043;DHT22;9146;48.074;11.968;2023-04-25T10:13:30;11.90;99.90
18043;DHT22;9146;48.074;11.968;2023-04-25T10:15:58;12.00;99.90
18043;DHT22;9146;48.074;11.968;2023-04-25T10:18:26;11.90;99.90
18043;DHT22;9146;48.074;11.968;2023-04-25T10:20:54;11.90;99.90
18043;DHT22;9146;48.074;11.968;2023-04-25T10:23:22;11.70;99.90
18043;DHT22;9146;48.074;11.968;2023-04-25T10:25:50;11.60;99.90
18043;DHT22;9146;48.074;11.968;2023-04-25T10:28:19;11.60;99.90
18043;DHT22;9146;48.074;11.968;2023-04-25T10:31:07;11.90;99.90
18043;DHT22;9146;48.074;11.968;2023-04-25T10:33:36;12.30;99.90
18043;DHT22;9146;48.074;11.968;2023-04-25T10:36:10;12.60;99.90
18043;DHT22;9146;48.074;11.968;2023-04-25T10:38:38;12.90;99.90
18043;DHT22;9146;48.074;11.968;2023-04-25T10:41:06;13.10;99.90
18043;DHT22;9146;48.074;11.968;2023-04-25T10:43:37;13.10;99.90
18043;DHT22;9146;48.074;11.968;2023-04-25T10:46:17;13.30;99.00
18043;DHT22;9146;48.074;11.968;2023-04-25T10:48:47;13.50;97.90
18043;DHT22;9146;48.074;11.968;2023-04-25T10:51:20;13.50;96.70
18043;DHT22;9146;48.074;11.968;2023-04-25T10:53:56;13.50;96.50
18043;DHT22;9146;48.074;11.968;2023-04-25T10:56:24;13.70;97.10
18043;DHT22;9146;48.074;11.968;2023-04-25T10:59:03;14.10;95.80
18043;DHT22;9146;48.074;11.968;2023-04-25T11:01:36;14.10;93.50
18043;DHT22;9146;48.074;11.968;2023-04-25T11:04:03;14.10;93.60
18043;DHT22;9146;48.074;11.968;2023-04-25T11:06:37;13.90;93.50
18043;DHT22;9146;48.074;11.968;2023-04-25T11:09:11;13.80;94.60
18043;DHT22;9146;48.074;11.968;2023-04-25T11:11:39;13.70;95.40
18043;DHT22;9146;48.074;11.968;2023-04-25T11:14:08;13.60;96.10
18043;DHT22;9146;48.074;11.968;2023-04-25T11:16:35;13.50;96.10
18043;DHT22;9146;48.074;11.968;2023-04-25T11:19:02;13.50;96.60
18043;DHT22;9146;48.074;11.968;2023-04-25T11:21:30;13.60;96.50
18043;DHT22;9146;48.074;11.968;2023-04-25T11:23:59;13.70;96.50
18043;DHT22;9146;48.074;11.968;2023-04-25T11:26:26;13.60;95.90
18043;DHT22;9146;48.074;11.968;2023-04-25T11:28:57;13.30;96.60
18043;DHT22;9146;48.074;11.968;2023-04-25T11:31:26;12.60;98.10
18043;DHT22;9146;48.074;11.968;2023-04-25T11:33:53;11.60;99.90
18043;DHT22;9146;48.074;11.968;2023-04-25T11:36:22;10.60;99.90
18043;DHT22;9146;48.074;11.968;2023-04-25T11:38:50;9.50;99.90
18043;DHT22;9146;48.074;11.968;2023-04-25T11:41:18;8.20;99.90
18043;DHT22;9146;48.074;11.968;2023-04-25T11:43:46;7.10;99.90
18043;DHT22;9146;48.074;11.968;2023-04-25T11:46:13;6.40;99.90
18043;DHT22;9146;48.074;11.968;2023-04-25T11:48:42;6.00;99.90
18043;DHT22;9146;48.074;11.968;2023-04-25T11:51:10;5.80;99.90
18043;DHT22;9146;48.074;11.968;2023-04-25T11:53:41;5.70;99.90
18043;DHT22;9146;48.074;11.968;2023-04-25T11:56:09;5.70;99.90
18043;DHT22;9146;48.074;11.968;2023-04-25T11:58:58;5.80;99.90
18043;DHT22;9146;48.074;11.968;2023-04-25T12:01:30;5.90;99.90
18043;DHT22;9146;48.074;11.968;2023-04-25T12:04:10;6.10;99.90
18043;DHT22;9146;48.074;11.968;2023-04-25T12:06:37;6.10;99.90
18043;DHT22;9146;48.074;11.968;2023-04-25T12:09:08;6.30;99.90
18043;DHT22;9146;48.074;11.968;2023-04-25T12:11:40;6.50;99.90
18043;DHT22;9146;48.074;11.968;2023-04-25T12:14:08;6.70;99.90
18043;DHT22;9146;48.074;11.968;2023-04-25T12:16:42;6.90;99.90
18043;DHT22;9146;48.074;11.968;2023-04-25T12:19:13;7.00;99.90
18043;DHT22;9146;48.074;11.968;2023-04-25T12:21:40;7.10;99.90
18043;DHT22;9146;48.074;11.968;2023-04-25T12:24:11;7.30;99.90
18043;DHT22;9146;48.074;11.968;2023-04-25T12:26:49;7.40;99.90
18043;DHT22;9146;48.074;11.968;2023-04-25T12:29:21;7.60;99.90
18043;DHT22;9146;48.074;11.968;2023-04-25T12:31:49;7.70;99.90
18043;DHT22;9146;48.074;11.968;2023-04-25T12:34:18;7.80;99.90
18043;DHT22;9146;48.074;11.968;2023-04-25T12:36:45;7.80;99.90
18043;DHT22;9146;48.074;11.968;2023-04-25T12:39:16;7.80;99.90
18043;DHT22;9146;48.074;11.968;2023-04-25T12:41:43;7.90;99.90
18043;DHT22;9146;48.074;11.968;2023-04-25T12:44:11;8.00;99.90
18043;DHT22;9146;48.074;11.968;2023-04-25T12:46:39;7.80;99.90
18043;DHT22;9146;48.074;11.968;2023-04-25T12:49:07;7.80;99.90
18043;DHT22;9146;48.074;11.968;2023-04-25T12:51:36;7.80;99.90
18043;DHT22;9146;48.074;11.968;2023-04-25T12:54:05;7.80;99.90
18043;DHT22;9146;48.074;11.968;2023-04-25T12:56:32;7.80;99.90
18043;DHT22;9146;48.074;11.968;2023-04-25T12:58:59;7.80;99.90
18043;DHT22;9146;48.074;11.968;2023-04-25T13:01:26;7.70;99.90
18043;DHT22;9146;48.074;11.968;2023-04-25T13:03:53;7.70;99.90
18043;DHT22;9146;48.074;11.968;2023-04-25T13:06:21;7.90;99.90
18043;DHT22;9146;48.074;11.968;2023-04-25T13:08:49;8.00;99.90
18043;DHT22;9146;48.074;11.968;2023-04-25T13:11:16;8.00;99.90
18043;DHT22;9146;48.074;11.968;2023-04-25T13:13:44;8.10;99.90
18043;DHT22;9146;48.074;11.968;2023-04-25T13:16:11;8.30;99.90
18043;DHT22;9146;48.074;11.968;2023-04-25T13:18:40;8.50;99.90
18043;DHT22;9146;48.074;11.968;2023-04-25T13:21:07;8.60;99.90
18043;DHT22;9146;48.074;11.968;2023-04-25T13:23:36;8.80;99.90
18043;DHT22;9146;48.074;11.968;2023-04-25T13:26:04;9.00;99.90
18043;DHT22;9146;48.074;11.968;2023-04-25T13:28:31;9.10;99.90
18043;DHT22;9146;48.074;11.968;2023-04-25T13:30:58;9.00;99.90
18043;DHT22;9146;48.074;11.968;2023-04-25T13:33:25;8.90;99.90
18043;DHT22;9146;48.074;11.968;2023-04-25T13:35:53;8.80;99.90
18043;DHT22;9146;48.074;11.968;2023-04-25T13:38:22;8.90;99.90
18043;DHT22;9146;48.074;11.968;2023-04-25T13:40:49;8.60;99.90
18043;DHT22;9146;48.074;11.968;2023-04-25T13:43:19;8.40;99.90
18043;DHT22;9146;48.074;11.968;2023-04-25T13:45:47;8.20;99.90
18043;DHT22;9146;48.074;11.968;2023-04-25T13:48:14;8.00;99.90
18043;DHT22;9146;48.074;11.968;2023-04-25T13:50:41;7.90;99.90
18043;DHT22;9146;48.074;11.968;2023-04-25T13:53:07;7.70;99.90
18043;DHT22;9146;48.074;11.968;2023-04-25T13:55:35;7.50;99.90
18043;DHT22;9146;48.074;11.968;2023-04-25T13:58:02;7.40;99.90
18043;DHT22;9146;48.074;11.968;2023-04-25T14:00:35;7.20;99.90
18043;DHT22;9146;48.074;11.968;2023-04-25T14:03:03;7.00;99.90
18043;DHT22;9146;48.074;11.968;2023-04-25T14:05:33;6.90;99.90
18043;DHT22;9146;48.074;11.968;2023-04-25T14:08:04;6.80;99.90
18043;DHT22;9146;48.074;11.968;2023-04-25T14:10:31;6.60;99.90
18043;DHT22;9146;48.074;11.968;2023-04-25T14:12:58;6.70;99.90
18043;DHT22;9146;48.074;11.968;2023-04-25T14:15:26;6.80;99.90
18043;DHT22;9146;48.074;11.968;2023-04-25T14:17:54;6.80;99.90
18043;DHT22;9146;48.074;11.968;2023-04-25T14:20:21;6.90;99.90
18043;DHT22;9146;48.074;11.968;2023-04-25T14:22:49;7.00;99.90
18043;DHT22;9146;48.074;11.968;2023-04-25T14:25:17;7.20;99.90
18043;DHT22;9146;48.074;11.968;2023-04-25T14:27:45;7.20;99.90
18043;DHT22;9146;48.074;11.968;2023-04-25T14:30:15;7.10;99.90
18043;DHT22;9146;48.074;11.968;2023-04-25T14:32:42;7.10;99.90
18043;DHT22;9146;48.074;11.968;2023-04-25T14:35:13;7.10;99.90
18043;DHT22;9146;48.074;11.968;2023-04-25T14:37:41;7.10;99.90
18043;DHT22;9146;48.074;11.968;2023-04-25T14:40:08;7.00;99.90
18043;DHT22;9146;48.074;11.968;2023-04-25T14:42:37;6.90;99.90
18043;DHT22;9146;48.074;11.968;2023-04-25T14:45:05;6.80;99.90
18043;DHT22;9146;48.074;11.968;2023-04-25T14:47:33;6.70;99.90
18043;DHT22;9146;48.074;11.968;2023-04-25T14:50:01;6.70;99.90
18043;DHT22;9146;48.074;11.968;2023-04-25T14:52:29;6.60;99.90
18043;DHT22;9146;48.074;11.968;2023-04-25T14:54:57;6.50;99.90
18043;DHT22;9146;48.074;11.968;2023-04-25T14:57:25;6.50;99.90
18043;DHT22;9146;48.074;11.968;2023-04-25T14:59:52;6.50;99.90
18043;DHT22;9146;48.074;11.968;2023-04-25T15:02:19;6.60;99.90
18043;DHT22;9146;48.074;11.968;2023-04-25T15:04:46;6.60;99.90
18043;DHT22;9146;48.074;11.968;2023-04-25T15:07:13;6.70;99.90
18043;DHT22;9146;48.074;11.968;2023-04-25T15:09:42;6.90;99.90
18043;DHT22;9146;48.074;11.968;2023-04-25T15:12:09;7.00;99.90
18043;DHT22;9146;48.074;11.968;2023-04-25T15:14:37;7.10;99.90
18043;DHT22;9146;48.074;11.968;2023-04-25T15:17:03;7.20;99.90
18043;DHT22;9146;48.074;11.968;2023-04-25T15:19:30;7.20;99.90
18043;DHT22;9146;48.074;11.968;2023-04-25T15:21:58;7.30;99.90
18043;DHT22;9146;48.074;11.968;2023-04-25T15:24:26;7.30;99.90
18043;DHT22;9146;48.074;11.968;2023-04-25T15:26:55;7.30;99.90
18043;DHT22;9146;48.074;11.968;2023-04-25T15:29:22;7.40;99.90
18043;DHT22;9146;48.074;11.968;2023-04-25T15:31:50;7.40;99.90
18043;DHT22;9146;48.074;11.968;2023-04-25T15:34:17;7.30;99.90
18043;DHT22;9146;48.074;11.968;2023-04-25T15:36:44;7.30;99.90
18043;DHT22;9146;48.074;11.968;2023-04-25T15:39:11;7.30;99.90
18043;DHT22;9146;48.074;11.968;2023-04-25T15:41:39;7.30;99.90
18043;DHT22;9146;48.074;11.968;2023-04-25T15:44:07;7.10;99.90
18043;DHT22;9146;48.074;11.968;2023-04-25T15:46:35;7.20;99.90